createdAt,value
2017-08-13T00:00:10.220Z,91.40
2017-08-13T00:02:38.546Z,91.80
2017-08-13T00:05:06.867Z,91.50
2017-08-13T00:07:35.191Z,91.50
2017-08-13T00:10:03.503Z,91.60
2017-08-13T00:12:31.936Z,91.90
2017-08-13T00:15:00.243Z,91.70
2017-08-13T00:17:28.585Z,91.70
2017-08-13T00:19:56.894Z,91.70
2017-08-13T00:22:25.211Z,91.70
2017-08-13T00:24:53.542Z,91.80
2017-08-13T00:27:21.868Z,91.70
2017-08-13T00:29:50.191Z,91.80
2017-08-13T00:32:18.523Z,91.80
2017-08-13T00:34:46.860Z,91.80
2017-08-13T00:37:15.180Z,91.80
2017-08-13T00:39:43.500Z,91.70
2017-08-13T00:42:11.835Z,91.70
2017-08-13T00:44:40.189Z,91.70
2017-08-13T00:47:08.490Z,91.70
2017-08-13T00:49:36.800Z,91.70
2017-08-13T00:52:05.171Z,91.70
2017-08-13T00:54:33.471Z,91.80
2017-08-13T00:57:01.814Z,91.90
2017-08-13T00:59:30.120Z,91.90
2017-08-13T01:01:58.471Z,92.00
2017-08-13T01:04:26.778Z,92.00
2017-08-13T01:06:55.147Z,92.10
2017-08-13T01:09:23.469Z,92.10
2017-08-13T01:11:51.896Z,92.20
2017-08-13T01:14:20.203Z,92.30
2017-08-13T01:16:48.510Z,92.30
2017-08-13T01:19:16.839Z,92.20
2017-08-13T01:21:45.167Z,92.10
2017-08-13T01:24:13.504Z,92.10
2017-08-13T01:26:41.827Z,92.20
2017-08-13T01:29:10.229Z,92.20
2017-08-13T01:31:38.543Z,92.20
2017-08-13T01:34:06.888Z,92.10
2017-08-13T01:36:35.195Z,92.10
2017-08-13T01:39:03.543Z,92.00
2017-08-13T01:41:31.847Z,92.00
2017-08-13T01:44:00.170Z,91.90
2017-08-13T01:46:28.503Z,91.80
2017-08-13T01:48:56.823Z,91.90
2017-08-13T01:51:25.146Z,91.90
2017-08-13T01:53:53.475Z,92.00
2017-08-13T01:56:21.800Z,92.10
2017-08-13T01:58:50.133Z,92.20
2017-08-13T02:01:18.462Z,92.00
2017-08-13T02:03:46.782Z,92.10
2017-08-13T02:06:15.175Z,92.20
2017-08-13T02:08:43.539Z,92.20
2017-08-13T02:11:11.851Z,92.20
2017-08-13T02:13:40.219Z,92.20
2017-08-13T02:16:08.535Z,92.30
2017-08-13T02:18:36.869Z,92.40
2017-08-13T02:21:05.184Z,92.30
2017-08-13T02:23:33.532Z,92.20
2017-08-13T02:26:01.847Z,92.20
2017-08-13T02:28:30.188Z,92.20
2017-08-13T02:30:58.497Z,92.20
2017-08-13T02:33:26.826Z,92.20
2017-08-13T02:35:54.380Z,92.20
2017-08-13T02:38:22.691Z,92.10
2017-08-13T02:40:51.044Z,92.10
2017-08-13T02:43:19.364Z,92.10
2017-08-13T02:45:47.705Z,92.00
2017-08-13T02:48:16.007Z,92.00
2017-08-13T02:50:44.364Z,92.00
2017-08-13T02:53:12.666Z,91.90
2017-08-13T02:55:41.019Z,91.90
2017-08-13T02:58:09.323Z,91.90
2017-08-13T03:00:37.674Z,91.90
2017-08-13T03:03:05.988Z,91.80
2017-08-13T03:05:34.307Z,91.80
2017-08-13T03:08:02.636Z,91.80
2017-08-13T03:10:30.959Z,91.80
2017-08-13T03:12:59.287Z,91.90
2017-08-13T03:15:27.602Z,91.90
2017-08-13T03:17:55.935Z,91.80
2017-08-13T03:20:24.259Z,91.80
2017-08-13T03:22:52.593Z,92.20
2017-08-13T03:25:20.919Z,91.80
2017-08-13T03:27:49.246Z,91.80
2017-08-13T03:30:17.570Z,91.80
2017-08-13T03:32:45.925Z,91.90
2017-08-13T03:35:14.331Z,92.10
2017-08-13T03:37:42.634Z,91.80
2017-08-13T03:40:10.963Z,91.80
2017-08-13T03:42:39.271Z,91.80
2017-08-13T03:45:07.659Z,91.70
2017-08-13T03:47:35.978Z,91.80
2017-08-13T03:50:04.424Z,91.70
2017-08-13T03:52:32.739Z,91.70
2017-08-13T03:55:01.069Z,91.80
2017-08-13T03:57:29.374Z,91.70
2017-08-13T03:59:57.699Z,91.70
2017-08-13T04:02:26.026Z,91.70
2017-08-13T04:04:54.360Z,91.70
2017-08-13T04:07:22.703Z,91.90
2017-08-13T04:09:51.015Z,91.60
2017-08-13T04:12:19.348Z,91.60
2017-08-13T04:14:47.663Z,91.60
2017-08-13T04:17:15.990Z,91.60
2017-08-13T04:19:44.323Z,91.60
2017-08-13T04:22:12.651Z,91.60
2017-08-13T04:24:40.975Z,91.70
2017-08-13T04:27:09.290Z,91.70
2017-08-13T04:29:37.650Z,91.70
2017-08-13T04:32:05.968Z,91.70
2017-08-13T04:34:34.315Z,91.70
2017-08-13T04:37:02.634Z,91.80
2017-08-13T04:39:30.975Z,91.80
2017-08-13T04:41:59.292Z,91.70
2017-08-13T04:44:27.623Z,91.80
2017-08-13T04:46:55.927Z,91.80
2017-08-13T04:49:24.388Z,91.90
2017-08-13T04:51:52.703Z,91.80
2017-08-13T04:54:21.021Z,91.90
2017-08-13T04:56:49.356Z,92.00
2017-08-13T04:59:17.664Z,92.00
2017-08-13T05:01:45.995Z,91.90
2017-08-13T05:04:14.311Z,91.70
2017-08-13T05:06:42.643Z,91.60
2017-08-13T05:09:10.959Z,91.50
2017-08-13T05:11:39.291Z,91.40
2017-08-13T05:14:07.628Z,91.40
2017-08-13T05:16:35.980Z,91.40
2017-08-13T05:19:04.282Z,91.30
2017-08-13T05:21:32.594Z,91.20
2017-08-13T05:24:00.947Z,91.00
2017-08-13T05:26:29.256Z,90.90
2017-08-13T05:28:57.587Z,90.70
2017-08-13T05:31:25.889Z,90.60
2017-08-13T05:33:54.224Z,90.80
2017-08-13T05:36:22.533Z,90.50
2017-08-13T05:38:50.887Z,89.50
2017-08-13T05:41:19.196Z,88.30
2017-08-13T05:43:47.503Z,87.40
2017-08-13T05:46:15.844Z,87.10
2017-08-13T05:48:44.145Z,86.90
2017-08-13T05:51:12.497Z,86.70
2017-08-13T05:53:40.802Z,86.40
2017-08-13T05:56:09.146Z,85.90
2017-08-13T05:58:37.451Z,85.40
2017-08-13T06:01:05.775Z,85.50
2017-08-13T06:03:34.084Z,84.20
2017-08-13T06:06:02.422Z,83.80
2017-08-13T06:08:30.726Z,83.60
2017-08-13T06:10:59.037Z,83.10
2017-08-13T06:13:27.397Z,82.50
2017-08-13T06:15:55.706Z,81.90
2017-08-13T06:18:24.052Z,81.50
2017-08-13T06:20:52.361Z,81.50
2017-08-13T06:23:20.716Z,81.60
2017-08-13T06:25:49.024Z,81.90
2017-08-13T06:28:17.347Z,81.40
2017-08-13T06:30:45.647Z,81.60
2017-08-13T06:33:14.009Z,82.20
2017-08-13T06:35:42.344Z,82.60
2017-08-13T06:38:10.642Z,83.00
2017-08-13T06:40:38.963Z,82.70
2017-08-13T06:43:07.301Z,82.10
2017-08-13T06:45:35.628Z,81.10
2017-08-13T06:48:04.012Z,79.70
2017-08-13T06:50:32.352Z,79.50
2017-08-13T06:53:00.666Z,79.20
2017-08-13T06:55:28.229Z,79.20
2017-08-13T06:57:56.547Z,77.90
2017-08-13T07:00:24.888Z,78.20
2017-08-13T07:02:53.206Z,79.20
2017-08-13T07:05:21.507Z,78.80
2017-08-13T07:07:49.833Z,78.30
2017-08-13T07:10:18.137Z,77.70
2017-08-13T07:12:46.478Z,77.40
2017-08-13T07:15:14.793Z,77.40
2017-08-13T07:17:43.117Z,76.90
2017-08-13T07:20:11.424Z,76.50
2017-08-13T07:22:39.756Z,74.90
2017-08-13T07:25:08.066Z,72.90
2017-08-13T07:27:36.403Z,73.00
2017-08-13T07:30:04.721Z,73.80
2017-08-13T07:32:33.031Z,74.50
2017-08-13T07:35:01.360Z,74.90
2017-08-13T07:37:29.671Z,75.40
2017-08-13T07:39:58.000Z,75.90
2017-08-13T07:42:26.310Z,76.20
2017-08-13T07:44:54.641Z,74.40
2017-08-13T07:47:22.940Z,73.60
2017-08-13T07:49:51.263Z,73.80
2017-08-13T07:52:19.558Z,73.60
2017-08-13T07:54:47.891Z,73.20
2017-08-13T07:57:16.195Z,72.40
2017-08-13T07:59:44.500Z,71.20
2017-08-13T08:02:12.825Z,69.60
2017-08-13T08:04:41.123Z,67.70
2017-08-13T08:07:09.450Z,67.10
2017-08-13T08:09:37.759Z,67.10
2017-08-13T08:12:06.088Z,67.00
2017-08-13T08:14:34.387Z,66.10
2017-08-13T08:17:02.715Z,66.60
2017-08-13T08:19:31.016Z,67.00
2017-08-13T08:21:59.351Z,67.70
2017-08-13T08:24:27.671Z,68.60
2017-08-13T08:26:55.982Z,69.50
2017-08-13T08:29:24.303Z,68.10
2017-08-13T08:31:52.611Z,68.50
2017-08-13T08:34:20.934Z,69.70
2017-08-13T08:36:49.243Z,69.90
2017-08-13T08:39:17.571Z,71.60
2017-08-13T08:41:45.898Z,72.60
2017-08-13T08:44:14.224Z,73.40
2017-08-13T08:46:42.535Z,73.30
2017-08-13T08:49:10.859Z,73.90
2017-08-13T08:51:39.170Z,74.50
2017-08-13T08:54:07.469Z,74.80
2017-08-13T08:56:35.803Z,73.70
2017-08-13T08:59:04.111Z,71.20
2017-08-13T09:01:32.433Z,70.80
2017-08-13T09:04:00.742Z,68.40
2017-08-13T09:06:29.068Z,66.40
2017-08-13T09:08:57.367Z,64.30
2017-08-13T09:11:25.687Z,62.80
2017-08-13T09:13:53.995Z,62.10
2017-08-13T09:16:22.343Z,59.70
2017-08-13T09:18:50.655Z,58.20
2017-08-13T09:21:18.960Z,56.90
2017-08-13T09:23:47.291Z,55.30
2017-08-13T09:26:15.596Z,53.80
2017-08-13T09:28:43.928Z,52.90
2017-08-13T09:31:12.248Z,52.40
2017-08-13T09:33:40.574Z,52.50
2017-08-13T09:36:08.888Z,53.20
2017-08-13T09:38:37.216Z,54.10
2017-08-13T09:41:05.532Z,55.40
2017-08-13T09:43:33.840Z,56.40
2017-08-13T09:46:02.166Z,58.70
2017-08-13T09:48:30.479Z,59.70
2017-08-13T09:50:58.807Z,60.40
2017-08-13T09:53:27.112Z,58.30
2017-08-13T09:55:55.445Z,57.00
2017-08-13T09:58:23.760Z,57.50
2017-08-13T10:00:52.096Z,56.90
2017-08-13T10:03:20.412Z,57.40
2017-08-13T10:05:48.738Z,58.50
2017-08-13T10:08:17.071Z,55.60
2017-08-13T10:10:45.401Z,54.00
2017-08-13T10:13:13.698Z,53.40
2017-08-13T10:15:42.012Z,52.40
2017-08-13T10:18:10.354Z,52.50
2017-08-13T10:20:38.676Z,53.30
2017-08-13T10:23:06.999Z,53.40
2017-08-13T10:25:35.304Z,53.00
2017-08-13T10:28:03.630Z,53.40
2017-08-13T10:30:31.940Z,54.70
2017-08-13T10:33:00.275Z,56.00
2017-08-13T10:35:28.583Z,56.60
2017-08-13T10:37:56.891Z,57.90
2017-08-13T10:40:25.236Z,57.70
2017-08-13T10:42:53.549Z,56.20
2017-08-13T10:45:21.879Z,55.70
2017-08-13T10:47:50.184Z,56.70
2017-08-13T10:50:18.516Z,57.10
2017-08-13T10:52:46.830Z,56.30
2017-08-13T10:55:15.163Z,54.50
2017-08-13T10:57:43.467Z,50.40
2017-08-13T11:00:11.828Z,47.60
2017-08-13T11:02:40.137Z,48.60
2017-08-13T11:05:08.460Z,49.80
2017-08-13T11:07:36.794Z,50.00
2017-08-13T11:10:05.095Z,49.00
2017-08-13T11:12:33.434Z,48.30
2017-08-13T11:15:01.746Z,46.80
2017-08-13T11:17:30.067Z,42.50
2017-08-13T11:19:58.383Z,42.00
2017-08-13T11:22:26.710Z,43.00
2017-08-13T11:24:55.021Z,44.30
2017-08-13T11:27:23.363Z,45.00
2017-08-13T11:29:51.691Z,46.00
2017-08-13T11:32:19.999Z,47.10
2017-08-13T11:34:48.331Z,47.10
2017-08-13T11:37:16.641Z,48.10
2017-08-13T11:39:44.969Z,46.90
2017-08-13T11:42:13.275Z,43.90
2017-08-13T11:44:41.580Z,42.70
2017-08-13T11:47:09.911Z,42.50
2017-08-13T11:49:38.220Z,40.60
2017-08-13T11:52:06.543Z,40.30
2017-08-13T11:54:34.860Z,40.70
2017-08-13T11:57:03.186Z,40.60
2017-08-13T11:59:31.496Z,41.10
2017-08-13T12:01:59.832Z,41.00
2017-08-13T12:04:28.147Z,41.80
2017-08-13T12:06:56.451Z,43.80
2017-08-13T12:09:24.781Z,43.70
2017-08-13T12:11:53.095Z,42.40
2017-08-13T12:14:21.419Z,40.70
2017-08-13T12:16:49.727Z,37.20
2017-08-13T12:19:18.054Z,36.00
2017-08-13T12:21:46.358Z,38.00
2017-08-13T12:24:14.697Z,38.20
2017-08-13T12:26:43.006Z,37.30
2017-08-13T12:29:11.308Z,36.00
2017-08-13T12:31:39.662Z,35.30
2017-08-13T12:34:07.973Z,35.90
2017-08-13T12:36:36.320Z,36.30
2017-08-13T12:39:04.623Z,36.60
2017-08-13T12:41:32.972Z,37.00
2017-08-13T12:44:01.276Z,36.00
2017-08-13T12:46:29.623Z,37.60
2017-08-13T12:48:57.928Z,39.10
2017-08-13T12:51:26.246Z,40.10
2017-08-13T12:53:54.576Z,40.10
2017-08-13T12:56:22.903Z,39.50
2017-08-13T12:58:51.231Z,39.80
2017-08-13T13:01:19.565Z,41.00
2017-08-13T13:03:47.899Z,42.10
2017-08-13T13:06:15.505Z,41.50
2017-08-13T13:08:43.863Z,41.00
2017-08-13T13:11:12.168Z,39.60
2017-08-13T13:13:40.474Z,38.50
2017-08-13T13:16:08.836Z,37.20
2017-08-13T13:18:37.147Z,37.00
2017-08-13T13:21:05.483Z,37.40
2017-08-13T13:23:33.787Z,37.20
2017-08-13T13:26:02.145Z,36.80
2017-08-13T13:28:30.458Z,35.10
2017-08-13T13:30:58.816Z,33.40
2017-08-13T13:33:27.127Z,32.80
2017-08-13T13:35:55.434Z,33.40
2017-08-13T13:38:23.759Z,33.80
2017-08-13T13:40:52.101Z,33.10
2017-08-13T13:43:20.438Z,33.10
2017-08-13T13:45:48.747Z,33.70
2017-08-13T13:48:17.079Z,33.40
2017-08-13T13:50:45.393Z,34.90
2017-08-13T13:53:13.715Z,36.50
2017-08-13T13:55:42.059Z,37.00
2017-08-13T13:58:10.391Z,38.20
2017-08-13T14:00:38.720Z,39.60
2017-08-13T14:03:07.031Z,39.70
2017-08-13T14:05:35.351Z,39.90
2017-08-13T14:08:03.654Z,40.20
2017-08-13T14:10:32.024Z,41.40
2017-08-13T14:13:00.332Z,40.80
2017-08-13T14:15:28.662Z,41.00
2017-08-13T14:17:56.966Z,40.70
2017-08-13T14:20:25.306Z,40.50
2017-08-13T14:22:53.624Z,39.70
2017-08-13T14:25:21.931Z,38.70
2017-08-13T14:27:50.260Z,37.30
2017-08-13T14:30:18.572Z,36.20
2017-08-13T14:32:46.908Z,35.70
2017-08-13T14:35:15.229Z,36.20
2017-08-13T14:37:43.555Z,38.50
2017-08-13T14:40:11.876Z,38.00
2017-08-13T14:42:40.183Z,38.70
2017-08-13T14:45:08.508Z,39.90
2017-08-13T14:47:36.824Z,40.60
2017-08-13T14:50:05.156Z,41.10
2017-08-13T14:52:33.462Z,40.00
2017-08-13T14:55:01.800Z,39.70
2017-08-13T14:57:30.117Z,39.20
2017-08-13T14:59:58.468Z,39.00
2017-08-13T15:02:26.776Z,39.20
2017-08-13T15:04:55.095Z,39.50
2017-08-13T15:07:23.426Z,38.60
2017-08-13T15:09:51.735Z,38.40
2017-08-13T15:12:20.058Z,38.50
2017-08-13T15:14:48.372Z,39.20
2017-08-13T15:17:16.706Z,39.60
2017-08-13T15:19:45.020Z,40.20
2017-08-13T15:22:13.368Z,41.40
2017-08-13T15:24:40.903Z,41.40
2017-08-13T15:27:09.214Z,42.00
2017-08-13T15:29:37.544Z,42.80
2017-08-13T15:32:05.854Z,43.20
2017-08-13T15:34:34.187Z,42.80
2017-08-13T15:37:02.490Z,43.00
2017-08-13T15:39:30.874Z,42.80
2017-08-13T15:41:59.180Z,41.10
2017-08-13T15:44:27.548Z,40.20
2017-08-13T15:46:55.966Z,39.70
2017-08-13T15:49:24.314Z,40.30
2017-08-13T15:51:51.863Z,40.20
2017-08-13T15:54:20.202Z,42.50
2017-08-13T15:56:48.509Z,44.20
2017-08-13T15:59:16.835Z,44.80
2017-08-13T16:01:45.178Z,45.80
2017-08-13T16:04:13.539Z,46.90
2017-08-13T16:06:41.847Z,47.40
2017-08-13T16:09:10.153Z,48.00
2017-08-13T16:11:38.512Z,48.50
2017-08-13T16:14:06.824Z,48.10
2017-08-13T16:16:35.151Z,47.40
2017-08-13T16:19:03.484Z,48.30
2017-08-13T16:21:31.054Z,48.30
2017-08-13T16:23:59.355Z,49.90
2017-08-13T16:26:27.689Z,51.20
2017-08-13T16:28:55.994Z,52.40
2017-08-13T16:31:24.300Z,53.30
2017-08-13T16:33:52.638Z,54.00
2017-08-13T16:36:20.950Z,54.40
2017-08-13T16:38:49.283Z,54.10
2017-08-13T16:41:17.598Z,54.10
2017-08-13T16:43:45.934Z,53.30
2017-08-13T16:46:14.235Z,51.60
2017-08-13T16:48:42.540Z,50.20
2017-08-13T16:51:10.874Z,50.10
2017-08-13T16:53:39.179Z,50.10
2017-08-13T16:56:07.506Z,50.00
2017-08-13T16:58:35.815Z,49.60
2017-08-13T17:01:04.148Z,49.60
2017-08-13T17:03:32.455Z,51.00
2017-08-13T17:06:00.791Z,50.70
2017-08-13T17:08:29.106Z,51.10
2017-08-13T17:10:57.406Z,49.60
2017-08-13T17:13:25.745Z,48.90
2017-08-13T17:15:54.055Z,49.60
2017-08-13T17:18:22.389Z,48.00
2017-08-13T17:20:50.694Z,46.60
2017-08-13T17:23:19.024Z,44.70
2017-08-13T17:25:47.334Z,43.30
2017-08-13T17:28:15.668Z,41.90
2017-08-13T17:30:43.981Z,40.60
2017-08-13T17:33:12.322Z,41.80
2017-08-13T17:35:40.630Z,43.00
2017-08-13T17:38:08.942Z,44.90
2017-08-13T17:40:37.266Z,45.80
2017-08-13T17:43:05.567Z,46.80
2017-08-13T17:45:33.896Z,47.30
2017-08-13T17:48:02.203Z,47.90
2017-08-13T17:50:30.530Z,48.60
2017-08-13T17:52:58.835Z,49.30
2017-08-13T17:55:27.170Z,50.50
2017-08-13T17:57:55.493Z,51.70
2017-08-13T18:00:23.836Z,52.80
2017-08-13T18:02:52.155Z,54.70
2017-08-13T18:05:20.476Z,54.90
2017-08-13T18:07:48.819Z,55.10
2017-08-13T18:10:17.146Z,55.20
2017-08-13T18:12:45.475Z,54.60
2017-08-13T18:15:13.791Z,53.40
2017-08-13T18:17:42.130Z,53.50
2017-08-13T18:20:10.445Z,54.40
2017-08-13T18:22:38.787Z,55.50
2017-08-13T18:25:07.100Z,56.70
2017-08-13T18:27:35.465Z,57.70
2017-08-13T18:30:03.786Z,58.40
2017-08-13T18:32:32.151Z,59.50
2017-08-13T18:35:00.491Z,60.30
2017-08-13T18:37:28.820Z,61.50
2017-08-13T18:39:57.157Z,63.30
2017-08-13T18:42:25.535Z,64.80
2017-08-13T18:44:53.866Z,65.20
2017-08-13T18:47:22.188Z,65.70
2017-08-13T18:49:50.545Z,66.70
2017-08-13T18:52:18.870Z,67.70
2017-08-13T18:54:47.240Z,68.30
2017-08-13T18:57:15.564Z,68.90
2017-08-13T18:59:43.867Z,69.60
2017-08-13T19:02:12.196Z,70.70
2017-08-13T19:04:40.499Z,71.30
2017-08-13T19:07:08.843Z,72.00
2017-08-13T19:09:37.147Z,72.70
2017-08-13T19:12:05.487Z,73.40
2017-08-13T19:14:33.799Z,73.90
2017-08-13T19:17:02.124Z,74.20
2017-08-13T19:19:30.435Z,74.60
2017-08-13T19:21:58.807Z,75.20
2017-08-13T19:24:27.154Z,75.80
2017-08-13T19:26:55.482Z,76.10
2017-08-13T19:29:23.869Z,76.40
2017-08-13T19:31:52.222Z,76.90
2017-08-13T19:34:20.608Z,77.50
2017-08-13T19:36:48.963Z,78.90
2017-08-13T19:39:17.308Z,78.40
2017-08-13T19:41:45.627Z,78.60
2017-08-13T19:44:13.955Z,78.70
2017-08-13T19:46:43.124Z,79.20
2017-08-13T19:49:11.595Z,79.20
2017-08-13T19:51:39.922Z,79.50
2017-08-13T19:54:08.247Z,80.00
2017-08-13T19:56:36.557Z,80.30
2017-08-13T19:59:04.134Z,80.20
2017-08-13T20:01:32.471Z,80.60
2017-08-13T20:04:00.807Z,80.40
2017-08-13T20:06:29.137Z,80.90
2017-08-13T20:08:57.473Z,81.10
2017-08-13T20:11:25.843Z,81.30
2017-08-13T20:13:54.184Z,81.50
2017-08-13T20:16:22.524Z,82.00
2017-08-13T20:18:50.862Z,81.90
2017-08-13T20:21:19.190Z,81.80
2017-08-13T20:23:47.500Z,81.80
2017-08-13T20:26:15.831Z,82.10
2017-08-13T20:28:44.147Z,82.00
2017-08-13T20:31:12.483Z,82.20
2017-08-13T20:33:40.789Z,82.70
2017-08-13T20:36:09.127Z,82.90
2017-08-13T20:38:37.443Z,82.70
2017-08-13T20:41:05.778Z,82.70
2017-08-13T20:43:34.105Z,82.70
2017-08-13T20:46:02.448Z,83.10
2017-08-13T20:48:30.764Z,83.60
2017-08-13T20:50:59.108Z,83.80
2017-08-13T20:53:27.430Z,83.70
2017-08-13T20:55:55.776Z,83.60
2017-08-13T20:58:24.105Z,83.80
2017-08-13T21:00:52.419Z,83.90
2017-08-13T21:03:20.757Z,83.80
2017-08-13T21:05:49.081Z,83.80
2017-08-13T21:08:17.824Z,83.80
2017-08-13T21:10:46.132Z,84.00
2017-08-13T21:13:14.471Z,83.90
2017-08-13T21:15:42.792Z,83.80
2017-08-13T21:18:11.128Z,84.20
2017-08-13T21:20:39.448Z,84.50
2017-08-13T21:23:07.780Z,84.50
2017-08-13T21:25:36.103Z,84.30
2017-08-13T21:28:04.443Z,84.20
2017-08-13T21:30:32.760Z,85.10
2017-08-13T21:33:01.105Z,84.30
2017-08-13T21:35:29.421Z,84.10
2017-08-13T21:37:57.743Z,84.40
2017-08-13T21:40:26.078Z,84.60
2017-08-13T21:42:54.395Z,84.60
2017-08-13T21:45:22.743Z,84.70
2017-08-13T21:47:51.059Z,85.00
2017-08-13T21:50:19.395Z,85.00
2017-08-13T21:52:47.714Z,84.90
2017-08-13T21:55:16.055Z,84.60
2017-08-13T21:57:44.375Z,84.70
2017-08-13T22:00:12.712Z,85.00
2017-08-13T22:02:41.027Z,85.10
2017-08-13T22:05:09.376Z,85.30
2017-08-13T22:07:37.690Z,85.00
2017-08-13T22:10:06.051Z,85.10
2017-08-13T22:12:34.368Z,85.10
2017-08-13T22:15:02.687Z,85.30
2017-08-13T22:17:31.026Z,85.50
2017-08-13T22:19:59.342Z,85.50
2017-08-13T22:22:27.692Z,85.30
2017-08-13T22:24:56.005Z,85.20
2017-08-13T22:27:24.345Z,85.20
2017-08-13T22:29:52.656Z,85.40
2017-08-13T22:32:20.994Z,85.60
2017-08-13T22:34:49.307Z,85.50
2017-08-13T22:37:17.666Z,85.20
2017-08-13T22:39:45.983Z,85.30
2017-08-13T22:42:14.331Z,85.30
2017-08-13T22:44:42.662Z,85.50
2017-08-13T22:47:10.983Z,85.90
2017-08-13T22:49:39.325Z,85.80
2017-08-13T22:52:07.634Z,85.80
2017-08-13T22:54:35.967Z,86.60
2017-08-13T22:57:04.287Z,85.90
2017-08-13T22:59:32.619Z,85.70
2017-08-13T23:02:00.943Z,85.50
2017-08-13T23:04:29.294Z,85.60
2017-08-13T23:06:57.623Z,85.80
2017-08-13T23:09:25.936Z,85.90
2017-08-13T23:11:54.268Z,85.70
2017-08-13T23:14:22.575Z,85.60
2017-08-13T23:16:50.906Z,85.60
2017-08-13T23:19:19.222Z,85.30
2017-08-13T23:21:47.560Z,86.30
2017-08-13T23:24:15.872Z,85.80
2017-08-13T23:26:44.212Z,85.80
2017-08-13T23:29:12.524Z,86.00
2017-08-13T23:31:40.867Z,86.20
2017-08-13T23:34:09.178Z,86.10
2017-08-13T23:36:37.485Z,86.10
2017-08-13T23:39:05.819Z,86.70
2017-08-13T23:41:34.131Z,86.00
2017-08-13T23:44:02.476Z,85.80
2017-08-13T23:46:30.783Z,86.00
2017-08-13T23:48:59.110Z,86.00
2017-08-13T23:51:27.414Z,86.00
2017-08-13T23:53:55.754Z,85.90
2017-08-13T23:56:24.073Z,85.90
2017-08-13T23:58:52.430Z,85.80
